createdAt,value
2023-05-06T00:00:33.203Z,98798.66
2023-05-06T00:03:02.737Z,98797.84
2023-05-06T00:05:29.286Z,98805.84
2023-05-06T00:07:56.046Z,98794.34
2023-05-06T00:10:25.842Z,98798.72
2023-05-06T00:12:59.418Z,98797.88
2023-05-06T00:15:31.499Z,98792.56
2023-05-06T00:17:58.730Z,98789.03
2023-05-06T00:20:25.424Z,98788.13
2023-05-06T00:22:51.920Z,98795.22
2023-05-06T00:25:18.757Z,98789.84
2023-05-06T00:27:45.392Z,98790.78
2023-05-06T00:30:12.408Z,98797.78
2023-05-06T00:32:42.160Z,98789.91
2023-05-06T00:35:12.052Z,98791.72
2023-05-06T00:37:41.816Z,98790.81
2023-05-06T00:40:11.511Z,98779.28
2023-05-06T00:42:37.958Z,98789.13
2023-05-06T00:45:04.945Z,98785.66
2023-05-06T00:47:31.518Z,98781.22
2023-05-06T00:49:58.308Z,98790.97
2023-05-06T00:52:27.737Z,98784.88
2023-05-06T00:54:55.220Z,98801.69
2023-05-06T00:57:24.697Z,98799.00
2023-05-06T00:59:51.249Z,98809.66
2023-05-06T01:02:17.756Z,98815.84
2023-05-06T01:04:44.565Z,98819.44
2023-05-06T01:07:20.006Z,98814.16
2023-05-06T01:10:34.713Z,98812.41
2023-05-06T01:13:15.043Z,98811.53
2023-05-06T01:15:45.758Z,98809.66
2023-05-06T01:18:17.029Z,98812.38
2023-05-06T01:20:49.905Z,98816.78
2023-05-06T01:23:17.154Z,98819.38
2023-05-06T01:25:46.643Z,98818.50
2023-05-06T01:28:13.757Z,98823.78
2023-05-06T01:30:52.496Z,98823.00
2023-05-06T01:33:37.605Z,98830.16
2023-05-06T01:36:15.926Z,98831.88
2023-05-06T01:38:57.915Z,98832.84
2023-05-06T01:41:25.522Z,98830.19
2023-05-06T01:43:57.560Z,98833.72
2023-05-06T01:46:29.628Z,98838.16
2023-05-06T01:49:02.328Z,98834.63
2023-05-06T01:51:28.897Z,98829.28
2023-05-06T01:53:55.453Z,98836.31
2023-05-06T01:56:24.445Z,98839.81
2023-05-06T01:58:51.088Z,98832.69
2023-05-06T02:01:17.747Z,98835.31
2023-05-06T02:03:47.473Z,98838.91
2023-05-06T02:06:14.056Z,98836.31
2023-05-06T02:08:41.132Z,98831.88
2023-05-06T02:11:16.933Z,98833.72
2023-05-06T02:13:43.451Z,98845.25
2023-05-06T02:16:10.253Z,98843.47
2023-05-06T02:18:36.912Z,98840.81
2023-05-06T02:21:03.490Z,98836.41
2023-05-06T02:23:30.100Z,98833.75
2023-05-06T02:25:58.323Z,98839.94
2023-05-06T02:28:25.422Z,98830.28
2023-05-06T02:30:55.932Z,98834.66
2023-05-06T02:33:22.791Z,98841.75
2023-05-06T02:35:49.862Z,98837.31
2023-05-06T02:38:16.372Z,98836.38
2023-05-06T02:40:42.930Z,98832.84
2023-05-06T02:43:09.399Z,98835.50
2023-05-06T02:45:35.982Z,98836.38
2023-05-06T02:48:02.528Z,98832.00
2023-05-06T02:50:29.102Z,98832.00
2023-05-06T02:52:55.693Z,98838.16
2023-05-06T02:55:22.213Z,98837.28
2023-05-06T02:57:48.686Z,98832.88
2023-05-06T03:00:16.388Z,98825.78
2023-05-06T03:02:42.992Z,98835.47
2023-05-06T03:05:10.119Z,98832.84
2023-05-06T03:07:38.512Z,98834.63
2023-05-06T03:10:05.430Z,98832.00
2023-05-06T03:12:31.891Z,98836.38
2023-05-06T03:14:58.440Z,98829.34
2023-05-06T03:17:24.973Z,98826.72
2023-05-06T03:19:52.046Z,98822.28
2023-05-06T03:22:18.556Z,98830.28
2023-05-06T03:24:45.917Z,98832.00
2023-05-06T03:27:12.408Z,98836.47
2023-05-06T03:29:38.908Z,98832.06
2023-05-06T03:32:05.737Z,98836.50
2023-05-06T03:34:32.430Z,98832.09
2023-05-06T03:36:58.910Z,98828.63
2023-05-06T03:39:25.420Z,98827.75
2023-05-06T03:41:51.931Z,98833.06
2023-05-06T03:44:18.441Z,98829.56
2023-05-06T03:46:45.027Z,98826.00
2023-05-06T03:49:11.532Z,98827.81
2023-05-06T03:51:38.067Z,98829.59
2023-05-06T03:54:04.693Z,98825.13
2023-05-06T03:56:31.224Z,98834.91
2023-05-06T03:58:57.860Z,98827.84
2023-05-06T04:01:24.401Z,98820.78
2023-05-06T04:03:56.087Z,98817.25
2023-05-06T04:06:22.972Z,98824.34
2023-05-06T04:08:49.492Z,98826.13
2023-05-06T04:11:16.013Z,98827.03
2023-05-06T04:13:42.539Z,98834.13
2023-05-06T04:16:10.068Z,98838.53
2023-05-06T04:18:37.515Z,98837.63
2023-05-06T04:21:04.125Z,98837.56
2023-05-06T04:23:30.703Z,98839.34
2023-05-06T04:25:57.903Z,98840.22
2023-05-06T04:28:24.637Z,98842.88
2023-05-06T04:30:51.595Z,98853.50
2023-05-06T04:33:18.077Z,98846.41
2023-05-06T04:35:51.124Z,98844.63
2023-05-06T04:38:17.934Z,98851.69
2023-05-06T04:40:44.535Z,98845.53
2023-05-06T04:43:11.519Z,98850.72
2023-05-06T04:45:40.138Z,98854.28
2023-05-06T04:48:06.981Z,98856.88
2023-05-06T04:50:33.482Z,98865.75
2023-05-06T04:52:59.915Z,98864.88
2023-05-06T04:55:26.486Z,98857.84
2023-05-06T04:57:52.950Z,98867.50
2023-05-06T05:00:19.681Z,98860.41
2023-05-06T05:02:46.891Z,98867.50
2023-05-06T05:05:14.064Z,98864.00
2023-05-06T05:07:40.564Z,98871.09
2023-05-06T05:10:09.120Z,98863.13
2023-05-06T05:12:35.705Z,98882.56
2023-05-06T05:15:02.439Z,98893.19
2023-05-06T05:17:29.282Z,98881.69
2023-05-06T05:19:55.745Z,98887.91
2023-05-06T05:22:22.253Z,98887.88
2023-05-06T05:24:48.702Z,98888.75
2023-05-06T05:27:15.960Z,98881.69
2023-05-06T05:29:42.445Z,98890.59
2023-05-06T05:32:08.916Z,98891.47
2023-05-06T05:34:35.560Z,98889.69
2023-05-06T05:37:02.075Z,98887.06
2023-05-06T05:39:28.542Z,98897.66
2023-05-06T05:41:55.105Z,98907.31
2023-05-06T05:44:21.790Z,98898.50
2023-05-06T05:46:48.635Z,98907.38
2023-05-06T05:49:15.152Z,98902.94
2023-05-06T05:51:41.654Z,98912.66
2023-05-06T05:54:08.819Z,98916.13
2023-05-06T05:56:35.363Z,98920.53
2023-05-06T05:59:01.879Z,98916.13
2023-05-06T06:01:28.477Z,98915.19
2023-05-06T06:03:56.411Z,98911.66
2023-05-06T06:06:24.296Z,98914.28
2023-05-06T06:08:50.821Z,98924.94
2023-05-06T06:11:17.334Z,98929.31
2023-05-06T06:13:43.845Z,98928.41
2023-05-06T06:16:11.110Z,98922.19
2023-05-06T06:18:37.715Z,98925.75
2023-05-06T06:21:04.345Z,98937.22
2023-05-06T06:23:30.934Z,98931.00
2023-05-06T06:25:57.427Z,98934.66
2023-05-06T06:28:23.947Z,98937.34
2023-05-06T06:30:50.495Z,98932.88
2023-05-06T06:33:17.020Z,98942.66
2023-05-06T06:35:43.494Z,98940.00
2023-05-06T06:38:10.000Z,98943.50
2023-05-06T06:40:42.694Z,98947.94
2023-05-06T06:43:14.112Z,98956.81
2023-05-06T06:45:40.604Z,98947.06
2023-05-06T06:48:07.239Z,98948.81
2023-05-06T06:50:33.691Z,98949.75
2023-05-06T06:53:00.238Z,98953.25
2023-05-06T06:55:26.852Z,98959.38
2023-05-06T06:57:56.329Z,98965.59
2023-05-06T07:00:26.209Z,98958.47
2023-05-06T07:02:53.906Z,98959.25
2023-05-06T07:05:20.572Z,98962.63
2023-05-06T07:07:47.092Z,98961.72
2023-05-06T07:10:13.686Z,98964.34
2023-05-06T07:12:43.068Z,98969.75
2023-05-06T07:15:10.099Z,98974.22
2023-05-06T07:17:40.128Z,98974.22
2023-05-06T07:20:07.310Z,98975.09
2023-05-06T07:22:34.096Z,98976.03
2023-05-06T07:25:00.616Z,98981.34
2023-05-06T07:27:30.231Z,98972.47
2023-05-06T07:29:56.887Z,98989.25
2023-05-06T07:32:23.440Z,98993.69
2023-05-06T07:34:50.000Z,98988.41
2023-05-06T07:37:16.464Z,98988.41
2023-05-06T07:39:43.218Z,98994.56
2023-05-06T07:42:12.903Z,98998.91
2023-05-06T07:44:40.000Z,98998.00
2023-05-06T07:47:07.091Z,98990.00
2023-05-06T07:49:35.199Z,98994.38
2023-05-06T07:52:02.016Z,98995.19
2023-05-06T07:54:28.926Z,98999.53
2023-05-06T07:56:55.671Z,99010.13
2023-05-06T07:59:24.738Z,99007.44
2023-05-06T08:01:51.305Z,99007.44
2023-05-06T08:04:17.877Z,99009.19
2023-05-06T08:06:46.918Z,99007.56
2023-05-06T08:09:22.010Z,99005.69
2023-05-06T08:11:53.072Z,99006.47
2023-05-06T08:14:19.642Z,99009.94
2023-05-06T08:16:46.420Z,99008.94
2023-05-06T08:19:13.026Z,99011.53
2023-05-06T08:21:39.475Z,99012.44
2023-05-06T08:24:06.146Z,99013.34
2023-05-06T08:26:34.467Z,99013.84
2023-05-06T08:29:07.157Z,99010.44
2023-05-06T08:31:35.825Z,99013.63
2023-05-06T08:34:02.354Z,99004.53
2023-05-06T08:36:29.002Z,99017.13
2023-05-06T08:38:55.572Z,99019.00
2023-05-06T08:41:26.518Z,99020.75
2023-05-06T08:43:55.009Z,99012.22
2023-05-06T08:46:22.730Z,99016.13
2023-05-06T08:48:49.252Z,99015.47
2023-05-06T08:51:16.321Z,99016.47
2023-05-06T08:53:48.387Z,99021.09
2023-05-06T08:56:16.311Z,99022.88
2023-05-06T08:58:48.288Z,99024.41
2023-05-06T09:01:16.073Z,99024.34
2023-05-06T09:03:43.899Z,99026.03
2023-05-06T09:06:10.468Z,99023.38
2023-05-06T09:08:37.489Z,99022.16
2023-05-06T09:11:24.540Z,99024.72
2023-05-06T09:13:51.535Z,99020.25
2023-05-06T09:16:32.701Z,99022.88
2023-05-06T09:19:01.084Z,99029.00
2023-05-06T09:21:38.801Z,99029.28
2023-05-06T09:24:06.725Z,99029.53
2023-05-06T09:26:35.596Z,99041.34
2023-05-06T09:29:02.971Z,99040.59
2023-05-06T09:31:30.188Z,99036.13
2023-05-06T09:33:59.458Z,99030.81
2023-05-06T09:36:27.680Z,99031.75
2023-05-06T09:38:55.782Z,99031.69
2023-05-06T09:41:27.461Z,99031.53
2023-05-06T09:43:55.609Z,99028.84
2023-05-06T09:46:23.683Z,99029.38
2023-05-06T09:48:56.375Z,99030.19
2023-05-06T09:51:28.238Z,99025.97
2023-05-06T09:53:55.841Z,99034.50
2023-05-06T09:56:26.343Z,99036.97
2023-05-06T09:58:56.875Z,99036.09
2023-05-06T10:01:35.508Z,99037.47
2023-05-06T10:04:10.138Z,99040.25
2023-05-06T10:06:44.690Z,99049.84
2023-05-06T10:09:11.431Z,99035.56
2023-05-06T10:11:42.195Z,99037.38
2023-05-06T10:14:10.145Z,99035.50
2023-05-06T10:16:40.409Z,99030.94
2023-05-06T10:19:09.263Z,99025.31
2023-05-06T10:21:40.505Z,99029.03
2023-05-06T10:24:11.374Z,99018.13
2023-05-06T10:26:38.800Z,99021.53
2023-05-06T10:29:09.912Z,99019.22
2023-05-06T10:31:42.318Z,99024.97
2023-05-06T10:34:09.469Z,99011.63
2023-05-06T10:36:39.061Z,99022.22
2023-05-06T10:39:07.319Z,99019.41
2023-05-06T10:41:37.131Z,99018.41
2023-05-06T10:44:06.775Z,99025.81
2023-05-06T10:46:57.356Z,99033.63
2023-05-06T10:49:25.509Z,99017.16
2023-05-06T10:52:14.297Z,99029.69
2023-05-06T10:54:51.382Z,99031.09
2023-05-06T10:57:26.662Z,99022.94
2023-05-06T10:59:55.473Z,99033.06
2023-05-06T11:02:24.006Z,99027.34
2023-05-06T11:04:52.945Z,99028.72
2023-05-06T11:07:24.064Z,99031.44
2023-05-06T11:10:07.268Z,99024.00
2023-05-06T11:12:49.360Z,99029.69
2023-05-06T11:15:28.931Z,99029.75
2023-05-06T11:17:56.612Z,99035.63
2023-05-06T11:20:28.810Z,99027.94
2023-05-06T11:22:55.814Z,99027.44
2023-05-06T11:25:51.702Z,99030.41
2023-05-06T11:28:18.191Z,99021.94
2023-05-06T11:30:54.491Z,99025.88
2023-05-06T11:33:24.101Z,99019.38
2023-05-06T11:35:53.380Z,99026.34
2023-05-06T11:38:19.875Z,99025.53
2023-05-06T11:40:46.585Z,99025.69
2023-05-06T11:43:14.223Z,99029.25
2023-05-06T11:45:45.429Z,99038.03
2023-05-06T11:48:13.871Z,99040.78
2023-05-06T11:50:47.758Z,99038.78
2023-05-06T11:53:18.927Z,99036.50
2023-05-06T11:55:47.167Z,99036.28
2023-05-06T11:58:19.945Z,99035.19
2023-05-06T12:00:53.751Z,99031.84
2023-05-06T12:03:21.504Z,99028.50
2023-05-06T12:05:49.917Z,99030.47
2023-05-06T12:08:27.904Z,99035.03
2023-05-06T12:10:58.823Z,99024.84
2023-05-06T12:13:26.706Z,99022.19
2023-05-06T12:15:55.323Z,99035.09
2023-05-06T12:18:23.736Z,99030.94
2023-05-06T12:20:50.389Z,99025.88
2023-05-06T12:23:17.088Z,99023.31
2023-05-06T12:25:44.760Z,99024.69
2023-05-06T12:28:19.815Z,99021.69
2023-05-06T12:30:46.989Z,99015.09
2023-05-06T12:33:13.773Z,99014.59
2023-05-06T12:35:41.210Z,99016.25
2023-05-06T12:38:16.369Z,99013.41
2023-05-06T12:40:44.456Z,99017.31
2023-05-06T12:43:12.138Z,99012.38
2023-05-06T12:45:40.337Z,99019.00
2023-05-06T12:48:07.063Z,99021.50
2023-05-06T12:50:44.372Z,99014.78
2023-05-06T12:53:15.731Z,99013.50
2023-05-06T12:55:42.428Z,99014.50
2023-05-06T12:58:19.216Z,99013.44
2023-05-06T13:00:45.972Z,99004.41
2023-05-06T13:03:15.621Z,99008.59
2023-05-06T13:05:42.134Z,99006.13
2023-05-06T13:08:08.636Z,99011.44
2023-05-06T13:10:35.085Z,99001.81
2023-05-06T13:13:01.616Z,99004.22
2023-05-06T13:15:28.180Z,99014.31
2023-05-06T13:17:54.800Z,99017.06
2023-05-06T13:20:21.823Z,99016.66
2023-05-06T13:22:54.333Z,99016.72
2023-05-06T13:25:21.829Z,99014.41
2023-05-06T13:27:48.346Z,99013.00
2023-05-06T13:30:14.974Z,99006.00
2023-05-06T13:32:41.510Z,99006.41
2023-05-06T13:35:09.013Z,99009.63
2023-05-06T13:37:39.012Z,99010.78
2023-05-06T13:40:06.389Z,99006.44
2023-05-06T13:42:33.071Z,99003.75
2023-05-06T13:44:59.589Z,99012.53
2023-05-06T13:47:26.735Z,99010.91
2023-05-06T13:49:53.233Z,99014.25
2023-05-06T13:52:19.665Z,99011.34
2023-05-06T13:54:47.795Z,99001.31
2023-05-06T13:57:14.240Z,99005.13
2023-05-06T13:59:40.789Z,99014.97
2023-05-06T14:02:09.635Z,99011.63
2023-05-06T14:04:36.525Z,99015.97
2023-05-06T14:07:03.136Z,99020.75
2023-05-06T14:09:29.583Z,99015.63
2023-05-06T14:11:56.042Z,99014.72
2023-05-06T14:14:22.505Z,99018.63
2023-05-06T14:16:49.022Z,99015.44
2023-05-06T14:19:15.454Z,99008.56
2023-05-06T14:21:41.944Z,99008.88
2023-05-06T14:24:10.114Z,99019.66
2023-05-06T14:26:36.609Z,99010.09
2023-05-06T14:29:03.660Z,99012.78
2023-05-06T14:31:30.279Z,99009.84
2023-05-06T14:33:57.349Z,99003.66
2023-05-06T14:36:23.799Z,99003.53
2023-05-06T14:38:50.422Z,98996.53
2023-05-06T14:41:16.877Z,98997.59
2023-05-06T14:43:43.349Z,98994.31
2023-05-06T14:46:11.148Z,98990.75
2023-05-06T14:48:37.785Z,98993.88
2023-05-06T14:51:04.981Z,98993.44
2023-05-06T14:53:31.477Z,98989.50
2023-05-06T14:55:57.927Z,98994.75
2023-05-06T14:58:24.470Z,98990.22
2023-05-06T15:00:51.008Z,98993.81
2023-05-06T15:03:17.492Z,98993.63
2023-05-06T15:05:44.018Z,98987.84
2023-05-06T15:08:10.546Z,98996.75
2023-05-06T15:10:37.062Z,99001.75
2023-05-06T15:13:03.649Z,98996.88
2023-05-06T15:15:30.330Z,99005.78
2023-05-06T15:17:56.823Z,98998.19
2023-05-06T15:20:23.507Z,98999.25
2023-05-06T15:22:50.126Z,98999.25
2023-05-06T15:25:30.296Z,98999.50
2023-05-06T15:28:01.179Z,98990.50
2023-05-06T15:30:27.656Z,98991.25
2023-05-06T15:32:54.160Z,98996.66
2023-05-06T15:35:20.963Z,98993.31
2023-05-06T15:37:47.483Z,98992.56
2023-05-06T15:40:14.038Z,98983.81
2023-05-06T15:42:40.971Z,98981.06
2023-05-06T15:45:08.066Z,98991.00
2023-05-06T15:47:34.642Z,98993.81
2023-05-06T15:50:01.584Z,98993.81
2023-05-06T15:52:28.564Z,98992.03
2023-05-06T15:54:59.495Z,98990.94
2023-05-06T15:57:26.459Z,98993.53
2023-05-06T15:59:52.973Z,98990.09
2023-05-06T16:04:49.196Z,98995.50
2023-05-06T16:07:16.638Z,98997.16
2023-05-06T16:09:43.118Z,98994.53
2023-05-06T16:12:10.020Z,99000.09
2023-05-06T16:14:36.658Z,98991.19
2023-05-06T16:17:03.156Z,99001.00
2023-05-06T16:19:32.089Z,99001.97
2023-05-06T16:21:58.695Z,99005.41
2023-05-06T16:24:25.293Z,99012.69
2023-05-06T16:26:51.868Z,99010.81
2023-05-06T16:29:20.644Z,99008.31
2023-05-06T16:31:48.475Z,99004.66
2023-05-06T16:34:15.434Z,99006.44
2023-05-06T16:36:41.963Z,99010.03
2023-05-06T16:39:08.710Z,99002.97
2023-05-06T16:41:35.264Z,99006.34
2023-05-06T16:44:01.981Z,99021.41
2023-05-06T16:46:28.943Z,99008.19
2023-05-06T16:48:55.870Z,99024.72
2023-05-06T16:51:25.127Z,99028.03
2023-05-06T16:53:51.629Z,99031.13
2023-05-06T16:56:18.114Z,99026.03
2023-05-06T16:58:44.615Z,99033.28
2023-05-06T17:01:11.762Z,99034.31
2023-05-06T17:03:38.652Z,99029.03
2023-05-06T17:06:05.669Z,99026.50
2023-05-06T17:08:36.006Z,99032.09
2023-05-06T17:11:08.821Z,99040.22
2023-05-06T17:13:35.560Z,99036.91
2023-05-06T17:16:02.089Z,99040.53
2023-05-06T17:18:28.670Z,99040.63
2023-05-06T17:20:56.927Z,99039.91
2023-05-06T17:23:23.973Z,99039.03
2023-05-06T17:25:51.306Z,99044.38
2023-05-06T17:28:18.927Z,99035.66
2023-05-06T17:30:45.858Z,99047.31
2023-05-06T17:33:12.665Z,99049.38
2023-05-06T17:35:39.183Z,99045.81
2023-05-06T17:38:05.787Z,99043.13
2023-05-06T17:40:32.251Z,99036.97
2023-05-06T17:42:58.769Z,99045.88
2023-05-06T17:45:26.718Z,99040.63
2023-05-06T17:47:53.452Z,99032.72
2023-05-06T17:50:20.051Z,99038.09
2023-05-06T17:52:48.900Z,99034.56
2023-05-06T17:55:16.977Z,99047.97
2023-05-06T17:57:44.084Z,99043.69
2023-05-06T18:00:11.422Z,99042.75
2023-05-06T18:02:38.119Z,99049.94
2023-05-06T18:05:04.990Z,99045.63
2023-05-06T18:07:31.517Z,99052.81
2023-05-06T18:09:58.262Z,99051.97
2023-05-06T18:12:24.805Z,99050.19
2023-05-06T18:14:51.291Z,99056.44
2023-05-06T18:17:17.828Z,99063.56
2023-05-06T18:19:44.327Z,99062.78
2023-05-06T18:22:10.808Z,99062.00
2023-05-06T18:24:38.154Z,99068.19
2023-05-06T18:27:04.754Z,99068.22
2023-05-06T18:29:33.083Z,99069.22
2023-05-06T18:32:00.307Z,99065.72
2023-05-06T18:34:26.964Z,99066.63
2023-05-06T18:36:57.953Z,99082.66
2023-05-06T18:39:24.541Z,99082.69
2023-05-06T18:41:51.029Z,99086.28
2023-05-06T18:44:17.467Z,99079.28
2023-05-06T18:46:43.958Z,99089.88
2023-05-06T18:49:10.786Z,99089.88
2023-05-06T18:51:37.309Z,99095.22
2023-05-06T18:54:03.780Z,99101.41
2023-05-06T18:56:30.265Z,99105.84
2023-05-06T18:58:57.228Z,99103.28
2023-05-06T19:01:25.045Z,99109.53
2023-05-06T19:03:54.621Z,99113.06
2023-05-06T19:06:21.123Z,99117.59
2023-05-06T19:08:47.653Z,99122.88
2023-05-06T19:11:15.985Z,99122.88
2023-05-06T19:13:43.848Z,99116.78
2023-05-06T19:16:13.898Z,99129.19
2023-05-06T19:18:40.706Z,99124.75
2023-05-06T19:21:10.110Z,99125.66
2023-05-06T19:23:36.871Z,99123.00
2023-05-06T19:26:06.382Z,99119.47
2023-05-06T19:28:33.592Z,99124.78
2023-05-06T19:31:00.087Z,99124.78
2023-05-06T19:33:26.932Z,99128.34
2023-05-06T19:35:53.377Z,99130.97
2023-05-06T19:38:19.926Z,99127.47
2023-05-06T19:40:46.420Z,99130.13
2023-05-06T19:43:12.872Z,99130.13
2023-05-06T19:45:39.844Z,99132.81
2023-05-06T19:48:08.505Z,99131.91
2023-05-06T19:50:35.121Z,99130.19
2023-05-06T19:53:01.588Z,99135.47
2023-05-06T19:55:28.086Z,99140.81
2023-05-06T19:57:57.337Z,99144.34
2023-05-06T20:00:27.241Z,99140.84
2023-05-06T20:02:58.629Z,99143.50
2023-05-06T20:05:30.819Z,99147.00
2023-05-06T20:07:59.675Z,99141.72
2023-05-06T20:10:27.355Z,99154.09
2023-05-06T20:12:56.069Z,99150.56
2023-05-06T20:15:24.195Z,99152.34
2023-05-06T20:17:50.748Z,99139.06
2023-05-06T20:20:17.576Z,99139.06
2023-05-06T20:22:44.135Z,99140.84
2023-05-06T20:25:13.161Z,99141.72
2023-05-06T20:27:40.032Z,99138.19
2023-05-06T20:30:08.126Z,99151.44
2023-05-06T20:32:35.108Z,99143.47
2023-05-06T20:35:01.879Z,99139.94
2023-05-06T20:37:29.363Z,99144.34
2023-05-06T20:39:56.597Z,99147.03
2023-05-06T20:42:24.394Z,99147.03
2023-05-06T20:44:51.498Z,99159.38
2023-05-06T20:47:18.204Z,99154.09
2023-05-06T20:49:45.048Z,99162.03
2023-05-06T20:52:14.466Z,99154.06
2023-05-06T20:54:42.695Z,99169.09
2023-05-06T20:57:09.902Z,99160.28
2023-05-06T20:59:36.584Z,99161.16
2023-05-06T21:02:03.950Z,99153.19
2023-05-06T21:04:31.007Z,99159.38
2023-05-06T21:06:57.551Z,99156.72
2023-05-06T21:09:26.421Z,99153.22
2023-05-06T21:11:52.968Z,99162.91
2023-05-06T21:14:21.840Z,99154.94
2023-05-06T21:16:48.385Z,99161.13
2023-05-06T21:19:14.811Z,99162.88
2023-05-06T21:21:41.412Z,99157.59
2023-05-06T21:24:07.920Z,99160.22
2023-05-06T21:26:34.515Z,99159.38
2023-05-06T21:29:00.958Z,99161.13
2023-05-06T21:31:27.754Z,99162.91
2023-05-06T21:33:55.656Z,99163.75
2023-05-06T21:36:22.187Z,99171.72
2023-05-06T21:39:00.048Z,99173.50
2023-05-06T21:41:26.884Z,99173.50
2023-05-06T21:43:53.552Z,99170.81
2023-05-06T21:46:20.125Z,99164.66
2023-05-06T21:48:46.603Z,99174.34
2023-05-06T21:51:13.129Z,99170.84
2023-05-06T21:53:39.578Z,99167.31
2023-05-06T21:56:06.334Z,99161.13
2023-05-06T21:58:32.818Z,99162.00
2023-05-06T22:00:59.313Z,99155.81
2023-05-06T22:03:27.514Z,99163.75
2023-05-06T22:05:54.092Z,99161.09
2023-05-06T22:08:20.538Z,99164.63
2023-05-06T22:10:49.160Z,99167.28
2023-05-06T22:13:30.173Z,99162.84
2023-05-06T22:15:56.986Z,99165.50
2023-05-06T22:18:23.748Z,99163.75
2023-05-06T22:20:52.383Z,99173.41
2023-05-06T22:23:21.766Z,99167.25
2023-05-06T22:25:48.234Z,99170.81
2023-05-06T22:28:14.716Z,99160.19
2023-05-06T22:30:43.538Z,99168.13
2023-05-06T22:33:10.032Z,99171.66
2023-05-06T22:35:36.575Z,99168.13
2023-05-06T22:38:03.067Z,99171.69
2023-05-06T22:40:31.163Z,99169.03
2023-05-06T22:42:57.648Z,99159.34
2023-05-06T22:45:24.213Z,99161.06
2023-05-06T22:47:50.877Z,99157.53
2023-05-06T22:50:17.458Z,99155.78
2023-05-06T22:52:49.726Z,99154.88
2023-05-06T22:55:16.449Z,99154.00
2023-05-06T22:57:43.014Z,99149.59
2023-05-06T23:00:12.404Z,99153.09
2023-05-06T23:02:39.160Z,99164.59
2023-05-06T23:05:06.528Z,99159.25
2023-05-06T23:07:33.051Z,99153.09
2023-05-06T23:10:00.838Z,99160.16
2023-05-06T23:12:31.450Z,99161.91
2023-05-06T23:15:01.591Z,99158.38
2023-05-06T23:17:28.099Z,99153.09
2023-05-06T23:19:54.672Z,99156.59
2023-05-06T23:22:21.179Z,99150.44
2023-05-06T23:24:47.636Z,99152.22
2023-05-06T23:27:14.115Z,99148.69
2023-05-06T23:29:45.874Z,99155.72
2023-05-06T23:32:12.349Z,99148.66
2023-05-06T23:34:38.802Z,99150.41
2023-05-06T23:37:05.355Z,99148.63
2023-05-06T23:39:31.834Z,99136.28
2023-05-06T23:42:00.615Z,99137.13
2023-05-06T23:44:27.093Z,99149.47
2023-05-06T23:46:53.710Z,99156.56
2023-05-06T23:49:23.749Z,99155.66
2023-05-06T23:51:50.295Z,99159.19
2023-05-06T23:54:16.860Z,99153.94
2023-05-06T23:56:43.348Z,99153.03
2023-05-06T23:59:09.848Z,99164.50
